»·PEaware :: N115CP KBFL-KMHV

N115CP :: KBFL-KMHV

FLIGHT INFORMATION

Flight Status: Arrived
Operator: Privately registered:
United States
More flights under this callsign
Pilot: Steven M. (34581)
Aircraft: CESSNA 172 SKYHAWK
(C172)
More flights by this aircraft type
Origin: KBFL Meadows
United States
Destination: KMHV Mojave
United States
More flights between these airports :: More routes between these airports
Route: CHADS KTSP
File this flight plan on PilotEdge
Remarks:
Altitude:
(Current/Filed)
7,500ft
Speed:
(Current/Filed)
110kts
Departed: 25-Oct-23 07:42 PM
Arrived: 25-Oct-23 08:33 PM
Distance/Time
Traveled:
50nm/0:51
Distance/Time
To Go:
Arrived

Flight Plot

Page will automatically refresh every two minutes.

Flight plan parsing failed; only flown route is shown


Map Options




Map Legend


Flown Route
Filed Route
Departure Airport
Arrival Airport
Navaid (VOR, NDB)
Fix

Horizontal Profiles

Position Reports

Time Latitude Longitude Heading Altitude Ground
Speed
25-Oct-23 19:24 35.429658 -119.046615 136 495ft 0kts
25-Oct-23 19:25 35.429658 -119.046615 136 495ft 0kts
25-Oct-23 19:26 35.429658 -119.046615 136 495ft 0kts
25-Oct-23 19:27 35.429658 -119.046615 136 495ft 0kts
25-Oct-23 19:28 35.429658 -119.046615 136 495ft 0kts
25-Oct-23 19:29 35.429657 -119.046615 136 495ft 0kts
25-Oct-23 19:30 35.429545 -119.046563 185 494ft 0kts
25-Oct-23 19:31 35.429545 -119.046563 185 494ft 0kts
25-Oct-23 19:32 35.429545 -119.046563 185 494ft 0kts
25-Oct-23 19:33 35.429425 -119.046575 180 494ft 5kts
25-Oct-23 19:34 35.429154 -119.046629 196 493ft 7kts
25-Oct-23 19:35 35.426227 -119.044692 129 482ft 29kts
25-Oct-23 19:36 35.425683 -119.044959 314 479ft 0kts
25-Oct-23 19:37 35.425683 -119.044959 314 479ft 0kts
25-Oct-23 19:38 35.425683 -119.044959 314 479ft 0kts
25-Oct-23 19:39 35.425683 -119.044959 314 479ft 0kts
25-Oct-23 19:40 35.425683 -119.044960 314 479ft 0kts
25-Oct-23 19:41 35.425990 -119.046830 316 476ft 42kts
25-Oct-23 19:42 35.434159 -119.056352 313 873ft 66kts
25-Oct-23 19:43 35.443019 -119.066577 326 1366ft 68kts
25-Oct-23 19:45 35.447552 -119.059199 122 1722ft 83kts
25-Oct-23 19:46 35.438598 -119.044628 122 2137ft 89kts
25-Oct-23 19:47 35.431714 -119.028339 108 2607ft 89kts
25-Oct-23 19:48 35.431648 -119.009177 90 3079ft 89kts
25-Oct-23 19:49 35.421379 -118.994702 138 3533ft 90kts
25-Oct-23 19:50 35.410195 -118.979744 127 3990ft 90kts
25-Oct-23 19:51 35.400940 -118.963150 121 4425ft 91kts
25-Oct-23 19:52 35.392550 -118.945347 118 4854ft 91kts
25-Oct-23 19:53 35.384557 -118.926596 116 5277ft 92kts
25-Oct-23 19:54 35.376820 -118.907421 115 5690ft 93kts
25-Oct-23 19:55 35.369235 -118.888070 115 6088ft 93kts
25-Oct-23 19:56 35.361229 -118.867341 115 6496ft 94kts
25-Oct-23 19:57 35.353510 -118.847214 115 6877ft 94kts
25-Oct-23 19:58 35.345475 -118.826200 115 7259ft 95kts
25-Oct-23 19:59 35.337214 -118.804646 116 7478ft 108kts
25-Oct-23 20:00 35.328490 -118.782215 116 7470ft 101kts
25-Oct-23 20:01 35.320091 -118.760317 115 7472ft 100kts
25-Oct-23 20:02 35.311709 -118.738384 115 7474ft 103kts
25-Oct-23 20:03 35.302985 -118.715110 111 7474ft 107kts
25-Oct-23 20:04 35.294523 -118.691542 112 7473ft 109kts
25-Oct-23 20:05 35.285959 -118.668564 113 7473ft 109kts
25-Oct-23 20:06 35.276813 -118.644574 113 7440ft 111kts
25-Oct-23 20:07 35.267550 -118.620402 113 7436ft 110kts
25-Oct-23 20:08 35.258459 -118.596681 113 7436ft 109kts
25-Oct-23 20:09 35.249160 -118.573562 128 7430ft 108kts
25-Oct-23 20:09 35.236597 -118.558714 134 7436ft 107kts
25-Oct-23 20:11 35.219070 -118.538208 134 7436ft 107kts
25-Oct-23 20:12 35.204108 -118.520566 134 7436ft 107kts
25-Oct-23 20:13 35.189402 -118.503216 134 7436ft 107kts
25-Oct-23 20:14 35.174748 -118.485933 134 7436ft 107kts
25-Oct-23 20:14 35.162645 -118.471666 134 7435ft 107kts
25-Oct-23 20:15 35.147835 -118.454148 133 7436ft 107kts
25-Oct-23 20:16 35.134466 -118.435160 109 7440ft 106kts
25-Oct-23 20:18 35.126788 -118.407109 105 7436ft 107kts
25-Oct-23 20:19 35.120372 -118.382723 105 7436ft 107kts
25-Oct-23 20:19 35.115233 -118.363164 105 7436ft 107kts
25-Oct-23 20:20 35.109146 -118.339990 106 7436ft 107kts
25-Oct-23 20:21 35.102713 -118.315594 106 7435ft 102kts
25-Oct-23 20:22 35.096654 -118.292588 106 7413ft 100kts
25-Oct-23 20:23 35.090576 -118.269559 106 7354ft 100kts
25-Oct-23 20:24 35.084514 -118.246681 107 7219ft 102kts
25-Oct-23 20:25 35.076574 -118.223987 116 6557ft 104kts
25-Oct-23 20:26 35.066599 -118.202788 123 5720ft 103kts
25-Oct-23 20:27 35.056209 -118.179614 132 4484ft 119kts
25-Oct-23 20:28 35.043116 -118.162745 127 4219ft 89kts
25-Oct-23 20:29 35.034322 -118.146689 107 4103ft 77kts
25-Oct-23 20:30 35.032133 -118.129617 29 3871ft 67kts
25-Oct-23 20:31 35.044404 -118.130280 327 2882ft 91kts
25-Oct-23 20:32 35.051952 -118.139635 316 2710ft 33kts
25-Oct-23 20:33 35.056283 -118.144865 316 2732ft 30kts
25-Oct-23 20:34 35.057539 -118.148612 270 2742ft 23kts
25-Oct-23 20:35 35.057122 -118.152151 319 2749ft 0kts
25-Oct-23 20:36 35.057122 -118.152151 319 2749ft 0kts

Navigation Log

Ident Type
Flight plan parsing failed, navigation log unavailable